Alexander, NC (28701)

11:42 AM EST on December 21, 2014 (GMT -0500)
Northern Horizons | Change Station
CLOSE
Current Station
Personal Weather Station
Location: Alexander, NC
Elevation: 2215 ft
Nearby Weather Stations

Elev 2215 ft 35.75 °N, 82.63 °W | Updated 14 seconds ago

Overcast
Overcast
47.0 °F
Feels Like 47 °F
N
1.0
Wind Variable Wind from SSE
Gusts 10.0 mph

Today
High -- | Low -- °F
--% Chance of Precip.
Yesterday
High -- | Low -- °F
Precip. -- in
7:36 AM 5:20 PM
Waning Crescent, 0% visible
Pressure 30.23 in
Visibility 10.0 miles
Clouds Few 1100 ft
Overcast 1900 ft
Windchill 47 °F
Dew Point 41 °F
Humidity 79%
Rainfall 0.00 in
Snow Depth Not available.
UV 1 out of 12
Pollen .70 out of 12
Air Quality Not available.
Flu Activity Not available.
METAR KAVL 211554Z 21003KT 10SM FEW011 OVC019 06/03 A3022 RMK AO2 SLP237 T00610028

More Conditions Fewer Conditions

Pressure 30.23 in
Visibility 10.0 miles
Clouds Few 1100 ft
Overcast 1900 ft
Windchill 47 °F
Dew Point 41 °F
Humidity 79%
Rainfall 0.00 in
Snow Depth Not available.
UV 1 out of 12
Pollen .70 out of 12
Air Quality Not available.
Flu Activity Not available.
METAR KAVL 211554Z 21003KT 10SM FEW011 OVC019 06/03 A3022 RMK AO2 SLP237 T00610028

More Conditions Fewer Conditions

10-Day Weather Forecast

Almanac

Astronomy

Dec. 21, 2014 Rise Set
Actual Time
Civil Twilight
Nautical Twilight
Astronomical Twilight
Moon
Length of Visible Light
Length of Day
Tomorrow will be .
, % of the Moon is Illuminated

Today's Extremes

State Highs State Lows

Community

WunderPhotos

Upload Photos

1,779,433 photos uploaded!

WunderBlogs® & News

Nearby

Air Quality

  Air Quality AQ Index Pollutant
Not available.

Snow Depth

Station Depth Elevation

Earthquake Activity

City Distance Mag. Time & Date
Minimum magnitude displayed is 2.5.

Coastal Water Temperatures

Place Temperature

Nearby Weather Stations